sensor_id;sensor_type;location;lat;lon;timestamp;P1;durP1;ratioP1;P2;durP2;ratioP2
68438;SDS011;55421;51.600;5.718;2023-12-04T00:00:06;24.20;;;10.50;;
68438;SDS011;55421;51.600;5.718;2023-12-04T00:02:33;20.70;;;9.40;;
68438;SDS011;55421;51.600;5.718;2023-12-04T00:05:00;27.50;;;11.40;;
68438;SDS011;55421;51.600;5.718;2023-12-04T00:07:26;18.60;;;7.60;;
68438;SDS011;55421;51.600;5.718;2023-12-04T00:09:53;28.00;;;12.10;;
68438;SDS011;55421;51.600;5.718;2023-12-04T00:12:19;21.90;;;9.60;;
68438;SDS011;55421;51.600;5.718;2023-12-04T00:14:46;25.70;;;11.20;;
68438;SDS011;55421;51.600;5.718;2023-12-04T00:17:12;20.50;;;10.00;;
68438;SDS011;55421;51.600;5.718;2023-12-04T00:19:39;24.50;;;11.20;;
68438;SDS011;55421;51.600;5.718;2023-12-04T00:22:05;24.70;;;11.30;;
68438;SDS011;55421;51.600;5.718;2023-12-04T00:24:32;24.40;;;11.10;;
68438;SDS011;55421;51.600;5.718;2023-12-04T00:26:58;25.50;;;10.40;;
68438;SDS011;55421;51.600;5.718;2023-12-04T00:29:25;22.40;;;10.40;;
68438;SDS011;55421;51.600;5.718;2023-12-04T00:31:51;24.70;;;10.80;;
68438;SDS011;55421;51.600;5.718;2023-12-04T00:34:18;22.50;;;10.00;;
68438;SDS011;55421;51.600;5.718;2023-12-04T00:36:44;25.50;;;10.80;;
68438;SDS011;55421;51.600;5.718;2023-12-04T00:39:11;20.20;;;9.20;;
68438;SDS011;55421;51.600;5.718;2023-12-04T00:41:37;26.00;;;10.90;;
68438;SDS011;55421;51.600;5.718;2023-12-04T00:44:04;30.30;;;12.10;;
68438;SDS011;55421;51.600;5.718;2023-12-04T00:46:30;22.40;;;9.80;;
68438;SDS011;55421;51.600;5.718;2023-12-04T00:48:57;21.80;;;9.50;;
68438;SDS011;55421;51.600;5.718;2023-12-04T00:51:23;25.90;;;11.30;;
68438;SDS011;55421;51.600;5.718;2023-12-04T00:53:49;23.30;;;10.90;;
68438;SDS011;55421;51.600;5.718;2023-12-04T00:56:16;20.30;;;9.10;;
68438;SDS011;55421;51.600;5.718;2023-12-04T00:58:42;23.10;;;10.90;;
68438;SDS011;55421;51.600;5.718;2023-12-04T01:01:09;27.80;;;11.80;;
68438;SDS011;55421;51.600;5.718;2023-12-04T01:03:35;22.80;;;11.10;;
68438;SDS011;55421;51.600;5.718;2023-12-04T01:06:03;23.90;;;10.90;;
68438;SDS011;55421;51.600;5.718;2023-12-04T01:08:30;21.00;;;9.60;;
68438;SDS011;55421;51.600;5.718;2023-12-04T01:10:57;20.20;;;9.30;;
68438;SDS011;55421;51.600;5.718;2023-12-04T01:13:23;19.60;;;10.00;;
68438;SDS011;55421;51.600;5.718;2023-12-04T01:15:50;22.50;;;10.00;;
68438;SDS011;55421;51.600;5.718;2023-12-04T01:18:17;22.80;;;10.80;;
68438;SDS011;55421;51.600;5.718;2023-12-04T01:20:44;21.10;;;9.80;;
68438;SDS011;55421;51.600;5.718;2023-12-04T01:23:10;20.20;;;9.90;;
68438;SDS011;55421;51.600;5.718;2023-12-04T01:25:37;25.70;;;11.20;;
68438;SDS011;55421;51.600;5.718;2023-12-04T01:28:03;21.10;;;10.10;;
68438;SDS011;55421;51.600;5.718;2023-12-04T01:30:30;21.60;;;10.70;;
68438;SDS011;55421;51.600;5.718;2023-12-04T01:32:56;21.40;;;9.90;;
68438;SDS011;55421;51.600;5.718;2023-12-04T01:35:23;22.40;;;10.10;;
68438;SDS011;55421;51.600;5.718;2023-12-04T01:37:51;22.00;;;10.40;;
68438;SDS011;55421;51.600;5.718;2023-12-04T01:40:18;22.10;;;10.50;;
68438;SDS011;55421;51.600;5.718;2023-12-04T01:42:44;15.70;;;7.40;;
68438;SDS011;55421;51.600;5.718;2023-12-04T01:45:10;19.70;;;9.90;;
68438;SDS011;55421;51.600;5.718;2023-12-04T01:47:37;24.10;;;11.00;;
68438;SDS011;55421;51.600;5.718;2023-12-04T01:50:05;24.50;;;10.50;;
68438;SDS011;55421;51.600;5.718;2023-12-04T01:52:33;20.80;;;9.80;;
68438;SDS011;55421;51.600;5.718;2023-12-04T01:55:02;21.60;;;10.00;;
68438;SDS011;55421;51.600;5.718;2023-12-04T01:57:29;21.30;;;10.50;;
68438;SDS011;55421;51.600;5.718;2023-12-04T01:59:55;17.90;;;8.40;;
68438;SDS011;55421;51.600;5.718;2023-12-04T02:02:22;23.30;;;10.60;;
68438;SDS011;55421;51.600;5.718;2023-12-04T02:04:48;19.30;;;9.10;;
68438;SDS011;55421;51.600;5.718;2023-12-04T02:07:15;20.60;;;9.30;;
68438;SDS011;55421;51.600;5.718;2023-12-04T02:09:42;20.80;;;9.30;;
68438;SDS011;55421;51.600;5.718;2023-12-04T02:12:08;23.40;;;10.70;;
68438;SDS011;55421;51.600;5.718;2023-12-04T02:14:35;24.10;;;10.80;;
68438;SDS011;55421;51.600;5.718;2023-12-04T02:17:03;22.80;;;10.60;;
68438;SDS011;55421;51.600;5.718;2023-12-04T02:19:32;22.20;;;10.70;;
68438;SDS011;55421;51.600;5.718;2023-12-04T02:21:58;20.20;;;10.00;;
68438;SDS011;55421;51.600;5.718;2023-12-04T02:24:25;21.60;;;10.60;;
68438;SDS011;55421;51.600;5.718;2023-12-04T02:26:55;19.30;;;8.50;;
68438;SDS011;55421;51.600;5.718;2023-12-04T02:29:39;20.50;;;9.40;;
68438;SDS011;55421;51.600;5.718;2023-12-04T02:32:14;18.40;;;8.80;;
68438;SDS011;55421;51.600;5.718;2023-12-04T02:34:43;19.00;;;9.30;;
68438;SDS011;55421;51.600;5.718;2023-12-04T02:37:13;24.50;;;11.10;;
68438;SDS011;55421;51.600;5.718;2023-12-04T02:39:41;17.10;;;8.40;;
68438;SDS011;55421;51.600;5.718;2023-12-04T02:42:09;18.90;;;8.70;;
68438;SDS011;55421;51.600;5.718;2023-12-04T02:44:35;16.00;;;7.80;;
68438;SDS011;55421;51.600;5.718;2023-12-04T02:47:02;19.10;;;9.40;;
68438;SDS011;55421;51.600;5.718;2023-12-04T02:49:28;19.90;;;9.10;;
68438;SDS011;55421;51.600;5.718;2023-12-04T02:51:55;17.60;;;8.80;;
68438;SDS011;55421;51.600;5.718;2023-12-04T02:54:21;14.90;;;7.00;;
68438;SDS011;55421;51.600;5.718;2023-12-04T02:56:48;21.80;;;10.20;;
68438;SDS011;55421;51.600;5.718;2023-12-04T02:59:14;20.20;;;10.10;;
68438;SDS011;55421;51.600;5.718;2023-12-04T03:01:41;20.10;;;9.60;;
68438;SDS011;55421;51.600;5.718;2023-12-04T03:04:07;16.70;;;8.70;;
68438;SDS011;55421;51.600;5.718;2023-12-04T03:06:34;20.40;;;10.00;;
68438;SDS011;55421;51.600;5.718;2023-12-04T03:09:00;17.70;;;8.40;;
68438;SDS011;55421;51.600;5.718;2023-12-04T03:11:27;17.60;;;8.40;;
68438;SDS011;55421;51.600;5.718;2023-12-04T03:13:53;18.70;;;8.20;;
68438;SDS011;55421;51.600;5.718;2023-12-04T03:16:19;17.80;;;8.60;;
68438;SDS011;55421;51.600;5.718;2023-12-04T03:18:46;14.90;;;7.10;;
68438;SDS011;55421;51.600;5.718;2023-12-04T03:21:14;16.60;;;8.10;;
68438;SDS011;55421;51.600;5.718;2023-12-04T03:23:41;15.40;;;7.60;;
68438;SDS011;55421;51.600;5.718;2023-12-04T03:26:08;13.80;;;7.50;;
68438;SDS011;55421;51.600;5.718;2023-12-04T03:28:35;18.50;;;8.20;;
68438;SDS011;55421;51.600;5.718;2023-12-04T03:31:02;17.80;;;9.10;;
68438;SDS011;55421;51.600;5.718;2023-12-04T03:33:28;13.20;;;7.10;;
68438;SDS011;55421;51.600;5.718;2023-12-04T03:35:55;16.80;;;8.70;;
68438;SDS011;55421;51.600;5.718;2023-12-04T03:38:21;15.70;;;7.80;;
68438;SDS011;55421;51.600;5.718;2023-12-04T03:40:47;15.10;;;6.60;;
68438;SDS011;55421;51.600;5.718;2023-12-04T03:43:14;15.60;;;8.00;;
68438;SDS011;55421;51.600;5.718;2023-12-04T03:45:40;17.20;;;8.00;;
68438;SDS011;55421;51.600;5.718;2023-12-04T03:48:07;17.60;;;8.60;;
68438;SDS011;55421;51.600;5.718;2023-12-04T03:50:33;19.40;;;9.00;;
68438;SDS011;55421;51.600;5.718;2023-12-04T03:53:00;19.90;;;9.90;;
68438;SDS011;55421;51.600;5.718;2023-12-04T03:55:26;21.30;;;9.60;;
68438;SDS011;55421;51.600;5.718;2023-12-04T03:57:54;20.10;;;9.40;;
68438;SDS011;55421;51.600;5.718;2023-12-04T04:00:21;20.70;;;9.70;;
68438;SDS011;55421;51.600;5.718;2023-12-04T04:02:47;15.50;;;7.60;;
68438;SDS011;55421;51.600;5.718;2023-12-04T04:05:14;19.60;;;10.30;;
68438;SDS011;55421;51.600;5.718;2023-12-04T04:07:41;17.70;;;9.30;;
68438;SDS011;55421;51.600;5.718;2023-12-04T04:10:08;18.40;;;9.70;;
68438;SDS011;55421;51.600;5.718;2023-12-04T04:12:35;19.40;;;9.10;;
68438;SDS011;55421;51.600;5.718;2023-12-04T04:15:01;19.50;;;9.60;;
68438;SDS011;55421;51.600;5.718;2023-12-04T04:17:28;18.80;;;9.00;;
68438;SDS011;55421;51.600;5.718;2023-12-04T04:19:55;15.50;;;8.50;;
68438;SDS011;55421;51.600;5.718;2023-12-04T04:22:22;17.90;;;8.80;;
68438;SDS011;55421;51.600;5.718;2023-12-04T04:24:49;16.00;;;8.40;;
68438;SDS011;55421;51.600;5.718;2023-12-04T04:27:15;14.70;;;8.10;;
68438;SDS011;55421;51.600;5.718;2023-12-04T04:29:42;17.40;;;9.00;;
68438;SDS011;55421;51.600;5.718;2023-12-04T04:32:08;22.10;;;10.10;;
68438;SDS011;55421;51.600;5.718;2023-12-04T04:34:35;20.20;;;9.70;;
68438;SDS011;55421;51.600;5.718;2023-12-04T04:37:01;15.80;;;8.10;;
68438;SDS011;55421;51.600;5.718;2023-12-04T04:39:28;15.50;;;8.60;;
68438;SDS011;55421;51.600;5.718;2023-12-04T04:41:54;20.60;;;10.00;;
68438;SDS011;55421;51.600;5.718;2023-12-04T04:44:20;20.70;;;9.50;;
68438;SDS011;55421;51.600;5.718;2023-12-04T04:46:47;16.00;;;7.80;;
68438;SDS011;55421;51.600;5.718;2023-12-04T04:49:13;21.00;;;9.90;;
68438;SDS011;55421;51.600;5.718;2023-12-04T04:51:40;14.50;;;8.20;;
68438;SDS011;55421;51.600;5.718;2023-12-04T04:54:06;17.60;;;9.00;;
68438;SDS011;55421;51.600;5.718;2023-12-04T04:56:33;18.10;;;9.40;;
68438;SDS011;55421;51.600;5.718;2023-12-04T04:58:59;19.70;;;9.70;;
68438;SDS011;55421;51.600;5.718;2023-12-04T05:01:25;16.80;;;8.20;;
68438;SDS011;55421;51.600;5.718;2023-12-04T05:03:52;16.70;;;8.70;;
68438;SDS011;55421;51.600;5.718;2023-12-04T05:06:18;17.40;;;8.20;;
68438;SDS011;55421;51.600;5.718;2023-12-04T05:08:45;17.60;;;9.00;;
68438;SDS011;55421;51.600;5.718;2023-12-04T05:11:14;13.40;;;7.00;;
68438;SDS011;55421;51.600;5.718;2023-12-04T05:13:41;16.30;;;8.10;;
68438;SDS011;55421;51.600;5.718;2023-12-04T05:16:08;15.60;;;8.10;;
68438;SDS011;55421;51.600;5.718;2023-12-04T05:18:35;13.90;;;7.80;;
68438;SDS011;55421;51.600;5.718;2023-12-04T05:21:01;15.30;;;8.30;;
68438;SDS011;55421;51.600;5.718;2023-12-04T05:23:27;14.30;;;6.60;;
68438;SDS011;55421;51.600;5.718;2023-12-04T05:25:54;16.90;;;8.20;;
68438;SDS011;55421;51.600;5.718;2023-12-04T05:28:20;17.80;;;8.90;;
68438;SDS011;55421;51.600;5.718;2023-12-04T05:30:47;14.60;;;7.60;;
68438;SDS011;55421;51.600;5.718;2023-12-04T05:33:13;16.00;;;8.00;;
68438;SDS011;55421;51.600;5.718;2023-12-04T05:35:40;14.90;;;8.10;;
68438;SDS011;55421;51.600;5.718;2023-12-04T05:38:06;14.40;;;7.50;;
68438;SDS011;55421;51.600;5.718;2023-12-04T05:40:34;15.60;;;8.30;;
68438;SDS011;55421;51.600;5.718;2023-12-04T05:43:01;13.60;;;7.80;;
68438;SDS011;55421;51.600;5.718;2023-12-04T05:45:27;14.30;;;7.60;;
68438;SDS011;55421;51.600;5.718;2023-12-04T05:47:53;16.20;;;8.10;;
68438;SDS011;55421;51.600;5.718;2023-12-04T05:50:20;12.70;;;6.80;;
68438;SDS011;55421;51.600;5.718;2023-12-04T05:52:46;15.40;;;8.20;;
68438;SDS011;55421;51.600;5.718;2023-12-04T05:55:13;16.40;;;8.40;;
68438;SDS011;55421;51.600;5.718;2023-12-04T05:57:40;18.50;;;8.80;;
68438;SDS011;55421;51.600;5.718;2023-12-04T06:00:07;13.80;;;7.50;;
68438;SDS011;55421;51.600;5.718;2023-12-04T06:02:41;17.90;;;7.80;;
68438;SDS011;55421;51.600;5.718;2023-12-04T06:05:09;15.20;;;7.50;;
68438;SDS011;55421;51.600;5.718;2023-12-04T06:07:36;13.50;;;6.40;;
68438;SDS011;55421;51.600;5.718;2023-12-04T06:10:04;15.90;;;7.30;;
68438;SDS011;55421;51.600;5.718;2023-12-04T06:12:31;14.00;;;7.40;;
68438;SDS011;55421;51.600;5.718;2023-12-04T06:14:58;14.90;;;7.00;;
68438;SDS011;55421;51.600;5.718;2023-12-04T06:17:25;11.10;;;6.10;;
68438;SDS011;55421;51.600;5.718;2023-12-04T06:19:53;12.10;;;6.80;;
68438;SDS011;55421;51.600;5.718;2023-12-04T06:22:20;14.80;;;7.70;;
68438;SDS011;55421;51.600;5.718;2023-12-04T06:24:48;12.40;;;7.00;;
68438;SDS011;55421;51.600;5.718;2023-12-04T06:27:16;13.20;;;7.30;;
68438;SDS011;55421;51.600;5.718;2023-12-04T06:29:47;13.10;;;6.40;;
68438;SDS011;55421;51.600;5.718;2023-12-04T06:32:15;11.60;;;6.40;;
68438;SDS011;55421;51.600;5.718;2023-12-04T06:34:42;12.70;;;7.00;;
68438;SDS011;55421;51.600;5.718;2023-12-04T06:37:10;14.20;;;6.90;;
68438;SDS011;55421;51.600;5.718;2023-12-04T06:39:38;14.40;;;7.50;;
68438;SDS011;55421;51.600;5.718;2023-12-04T06:42:09;11.70;;;6.60;;
68438;SDS011;55421;51.600;5.718;2023-12-04T06:44:37;14.90;;;7.70;;
68438;SDS011;55421;51.600;5.718;2023-12-04T06:47:04;18.90;;;7.90;;
68438;SDS011;55421;51.600;5.718;2023-12-04T06:49:34;12.60;;;6.90;;
68438;SDS011;55421;51.600;5.718;2023-12-04T06:52:01;15.00;;;7.60;;
68438;SDS011;55421;51.600;5.718;2023-12-04T06:54:27;13.80;;;7.90;;
68438;SDS011;55421;51.600;5.718;2023-12-04T06:56:54;13.20;;;6.40;;
68438;SDS011;55421;51.600;5.718;2023-12-04T06:59:20;13.40;;;7.60;;
68438;SDS011;55421;51.600;5.718;2023-12-04T07:01:47;13.60;;;8.00;;
68438;SDS011;55421;51.600;5.718;2023-12-04T07:04:14;10.80;;;6.40;;
68438;SDS011;55421;51.600;5.718;2023-12-04T07:06:47;11.10;;;6.00;;
68438;SDS011;55421;51.600;5.718;2023-12-04T07:09:14;14.80;;;7.60;;
68438;SDS011;55421;51.600;5.718;2023-12-04T07:11:43;14.40;;;7.60;;
68438;SDS011;55421;51.600;5.718;2023-12-04T07:14:10;11.90;;;7.40;;
68438;SDS011;55421;51.600;5.718;2023-12-04T07:16:41;14.00;;;7.70;;
68438;SDS011;55421;51.600;5.718;2023-12-04T07:19:11;12.30;;;7.80;;
68438;SDS011;55421;51.600;5.718;2023-12-04T07:21:40;13.30;;;7.20;;
68438;SDS011;55421;51.600;5.718;2023-12-04T07:24:07;11.30;;;6.80;;
68438;SDS011;55421;51.600;5.718;2023-12-04T07:26:35;11.40;;;6.50;;
68438;SDS011;55421;51.600;5.718;2023-12-04T07:29:02;9.20;;;5.80;;
68438;SDS011;55421;51.600;5.718;2023-12-04T07:31:29;12.80;;;6.90;;
68438;SDS011;55421;51.600;5.718;2023-12-04T07:33:56;11.30;;;6.70;;
68438;SDS011;55421;51.600;5.718;2023-12-04T07:36:23;11.00;;;5.60;;
68438;SDS011;55421;51.600;5.718;2023-12-04T07:38:51;12.80;;;7.20;;
68438;SDS011;55421;51.600;5.718;2023-12-04T07:41:20;11.00;;;6.60;;
68438;SDS011;55421;51.600;5.718;2023-12-04T07:43:47;12.40;;;6.60;;
68438;SDS011;55421;51.600;5.718;2023-12-04T07:46:13;9.50;;;6.30;;
68438;SDS011;55421;51.600;5.718;2023-12-04T07:48:40;15.30;;;7.20;;
68438;SDS011;55421;51.600;5.718;2023-12-04T07:51:07;8.60;;;5.30;;
68438;SDS011;55421;51.600;5.718;2023-12-04T07:53:33;9.70;;;5.30;;
68438;SDS011;55421;51.600;5.718;2023-12-04T07:56:03;10.40;;;5.70;;
68438;SDS011;55421;51.600;5.718;2023-12-04T07:58:31;10.70;;;6.20;;
68438;SDS011;55421;51.600;5.718;2023-12-04T08:00:58;11.90;;;5.70;;
68438;SDS011;55421;51.600;5.718;2023-12-04T08:03:25;12.20;;;6.10;;
68438;SDS011;55421;51.600;5.718;2023-12-04T08:05:52;12.70;;;6.50;;
68438;SDS011;55421;51.600;5.718;2023-12-04T08:08:18;9.50;;;5.80;;
68438;SDS011;55421;51.600;5.718;2023-12-04T08:10:45;10.90;;;6.80;;
68438;SDS011;55421;51.600;5.718;2023-12-04T08:13:12;11.00;;;6.10;;
68438;SDS011;55421;51.600;5.718;2023-12-04T08:15:38;10.60;;;5.70;;
68438;SDS011;55421;51.600;5.718;2023-12-04T08:18:05;11.00;;;6.00;;
68438;SDS011;55421;51.600;5.718;2023-12-04T08:20:32;11.30;;;6.30;;
68438;SDS011;55421;51.600;5.718;2023-12-04T08:22:59;10.80;;;6.10;;
68438;SDS011;55421;51.600;5.718;2023-12-04T08:25:26;13.80;;;7.40;;
68438;SDS011;55421;51.600;5.718;2023-12-04T08:27:52;11.20;;;6.70;;
68438;SDS011;55421;51.600;5.718;2023-12-04T08:30:19;11.50;;;5.90;;
68438;SDS011;55421;51.600;5.718;2023-12-04T08:32:45;10.00;;;5.30;;
68438;SDS011;55421;51.600;5.718;2023-12-04T08:35:12;14.00;;;7.10;;
68438;SDS011;55421;51.600;5.718;2023-12-04T08:37:38;12.70;;;7.40;;
68438;SDS011;55421;51.600;5.718;2023-12-04T08:40:06;11.70;;;7.40;;
68438;SDS011;55421;51.600;5.718;2023-12-04T08:42:34;13.20;;;6.80;;
68438;SDS011;55421;51.600;5.718;2023-12-04T08:45:01;11.40;;;6.50;;
68438;SDS011;55421;51.600;5.718;2023-12-04T08:47:27;10.00;;;6.00;;
68438;SDS011;55421;51.600;5.718;2023-12-04T08:49:54;8.80;;;5.40;;
68438;SDS011;55421;51.600;5.718;2023-12-04T08:52:20;11.70;;;7.40;;
68438;SDS011;55421;51.600;5.718;2023-12-04T08:54:47;12.80;;;7.00;;
68438;SDS011;55421;51.600;5.718;2023-12-04T08:57:13;12.30;;;6.70;;
68438;SDS011;55421;51.600;5.718;2023-12-04T08:59:40;14.00;;;7.40;;
68438;SDS011;55421;51.600;5.718;2023-12-04T09:02:06;10.90;;;6.20;;
68438;SDS011;55421;51.600;5.718;2023-12-04T09:04:33;14.10;;;7.50;;
68438;SDS011;55421;51.600;5.718;2023-12-04T09:06:59;13.30;;;7.50;;
68438;SDS011;55421;51.600;5.718;2023-12-04T09:09:26;11.10;;;6.40;;
68438;SDS011;55421;51.600;5.718;2023-12-04T09:11:52;11.50;;;7.00;;
68438;SDS011;55421;51.600;5.718;2023-12-04T09:14:19;13.30;;;7.10;;
68438;SDS011;55421;51.600;5.718;2023-12-04T09:16:45;17.40;;;8.40;;
68438;SDS011;55421;51.600;5.718;2023-12-04T09:19:12;15.10;;;8.10;;
68438;SDS011;55421;51.600;5.718;2023-12-04T09:21:38;14.70;;;8.30;;
68438;SDS011;55421;51.600;5.718;2023-12-04T09:24:05;15.70;;;8.40;;
68438;SDS011;55421;51.600;5.718;2023-12-04T09:26:32;13.10;;;7.70;;
68438;SDS011;55421;51.600;5.718;2023-12-04T09:28:58;13.20;;;7.60;;
68438;SDS011;55421;51.600;5.718;2023-12-04T09:31:25;17.10;;;9.50;;
68438;SDS011;55421;51.600;5.718;2023-12-04T09:33:51;16.00;;;9.00;;
68438;SDS011;55421;51.600;5.718;2023-12-04T09:36:17;15.20;;;8.20;;
68438;SDS011;55421;51.600;5.718;2023-12-04T09:38:44;17.30;;;8.90;;
68438;SDS011;55421;51.600;5.718;2023-12-04T09:41:12;18.00;;;9.50;;
68438;SDS011;55421;51.600;5.718;2023-12-04T09:43:39;20.00;;;11.30;;
68438;SDS011;55421;51.600;5.718;2023-12-04T09:46:08;19.30;;;10.10;;
68438;SDS011;55421;51.600;5.718;2023-12-04T09:48:36;15.20;;;8.70;;
68438;SDS011;55421;51.600;5.718;2023-12-04T09:51:05;17.80;;;9.60;;
68438;SDS011;55421;51.600;5.718;2023-12-04T09:53:34;13.10;;;7.40;;
68438;SDS011;55421;51.600;5.718;2023-12-04T09:56:03;16.30;;;8.90;;
68438;SDS011;55421;51.600;5.718;2023-12-04T09:58:31;18.00;;;9.00;;
68438;SDS011;55421;51.600;5.718;2023-12-04T10:01:01;15.60;;;9.30;;
68438;SDS011;55421;51.600;5.718;2023-12-04T10:03:28;18.40;;;9.40;;
68438;SDS011;55421;51.600;5.718;2023-12-04T10:05:56;20.10;;;10.80;;
68438;SDS011;55421;51.600;5.718;2023-12-04T10:08:22;17.60;;;9.80;;
68438;SDS011;55421;51.600;5.718;2023-12-04T10:10:49;16.80;;;9.70;;
68438;SDS011;55421;51.600;5.718;2023-12-04T10:13:15;16.60;;;9.40;;
68438;SDS011;55421;51.600;5.718;2023-12-04T10:15:49;19.90;;;10.60;;
68438;SDS011;55421;51.600;5.718;2023-12-04T10:18:30;17.90;;;10.50;;
68438;SDS011;55421;51.600;5.718;2023-12-04T10:20:58;19.20;;;9.70;;
68438;SDS011;55421;51.600;5.718;2023-12-04T10:23:39;15.20;;;7.70;;
68438;SDS011;55421;51.600;5.718;2023-12-04T10:26:07;14.60;;;8.40;;
68438;SDS011;55421;51.600;5.718;2023-12-04T10:28:35;18.80;;;10.30;;
68438;SDS011;55421;51.600;5.718;2023-12-04T10:31:02;18.70;;;10.10;;
68438;SDS011;55421;51.600;5.718;2023-12-04T10:33:29;16.30;;;9.30;;
68438;SDS011;55421;51.600;5.718;2023-12-04T10:35:57;14.60;;;8.20;;
68438;SDS011;55421;51.600;5.718;2023-12-04T10:38:23;17.60;;;9.60;;
68438;SDS011;55421;51.600;5.718;2023-12-04T10:40:50;18.40;;;10.20;;
68438;SDS011;55421;51.600;5.718;2023-12-04T10:43:18;20.70;;;10.30;;
68438;SDS011;55421;51.600;5.718;2023-12-04T10:45:50;19.70;;;11.20;;
68438;SDS011;55421;51.600;5.718;2023-12-04T10:48:18;18.00;;;9.30;;
68438;SDS011;55421;51.600;5.718;2023-12-04T10:50:47;16.00;;;8.80;;
68438;SDS011;55421;51.600;5.718;2023-12-04T10:53:17;14.70;;;8.70;;
68438;SDS011;55421;51.600;5.718;2023-12-04T10:55:44;16.80;;;10.30;;
68438;SDS011;55421;51.600;5.718;2023-12-04T10:58:13;16.90;;;8.80;;
68438;SDS011;55421;51.600;5.718;2023-12-04T11:00:46;19.60;;;10.30;;
68438;SDS011;55421;51.600;5.718;2023-12-04T11:03:40;16.10;;;9.00;;
68438;SDS011;55421;51.600;5.718;2023-12-04T11:06:16;18.50;;;9.70;;
68438;SDS011;55421;51.600;5.718;2023-12-04T11:08:47;17.40;;;8.60;;
68438;SDS011;55421;51.600;5.718;2023-12-04T11:11:19;16.80;;;9.30;;
68438;SDS011;55421;51.600;5.718;2023-12-04T11:14:08;20.70;;;11.00;;
68438;SDS011;55421;51.600;5.718;2023-12-04T11:16:48;19.10;;;9.00;;
68438;SDS011;55421;51.600;5.718;2023-12-04T11:19:36;20.10;;;11.10;;
68438;SDS011;55421;51.600;5.718;2023-12-04T11:22:09;13.60;;;7.60;;
68438;SDS011;55421;51.600;5.718;2023-12-04T11:24:37;13.70;;;7.50;;
68438;SDS011;55421;51.600;5.718;2023-12-04T11:27:05;16.00;;;9.40;;
68438;SDS011;55421;51.600;5.718;2023-12-04T11:29:32;14.40;;;8.60;;
68438;SDS011;55421;51.600;5.718;2023-12-04T11:32:05;17.40;;;9.90;;
68438;SDS011;55421;51.600;5.718;2023-12-04T11:34:35;17.60;;;9.40;;
68438;SDS011;55421;51.600;5.718;2023-12-04T11:37:02;13.80;;;8.60;;
68438;SDS011;55421;51.600;5.718;2023-12-04T11:39:29;19.80;;;10.00;;
68438;SDS011;55421;51.600;5.718;2023-12-04T11:42:00;18.60;;;10.50;;
68438;SDS011;55421;51.600;5.718;2023-12-04T11:44:26;18.90;;;10.00;;
68438;SDS011;55421;51.600;5.718;2023-12-04T11:46:57;17.80;;;10.10;;
68438;SDS011;55421;51.600;5.718;2023-12-04T11:49:30;18.40;;;9.20;;
68438;SDS011;55421;51.600;5.718;2023-12-04T11:51:59;13.60;;;7.80;;
68438;SDS011;55421;51.600;5.718;2023-12-04T11:54:27;17.00;;;8.30;;
68438;SDS011;55421;51.600;5.718;2023-12-04T11:57:20;16.40;;;9.50;;
68438;SDS011;55421;51.600;5.718;2023-12-04T11:59:48;15.10;;;8.40;;
68438;SDS011;55421;51.600;5.718;2023-12-04T12:02:15;13.90;;;7.60;;
68438;SDS011;55421;51.600;5.718;2023-12-04T12:04:43;14.60;;;9.20;;
68438;SDS011;55421;51.600;5.718;2023-12-04T12:07:11;15.20;;;8.50;;
68438;SDS011;55421;51.600;5.718;2023-12-04T12:09:38;16.10;;;8.70;;
68438;SDS011;55421;51.600;5.718;2023-12-04T12:12:05;17.70;;;9.60;;
68438;SDS011;55421;51.600;5.718;2023-12-04T12:14:32;16.00;;;9.30;;
68438;SDS011;55421;51.600;5.718;2023-12-04T12:16:59;18.20;;;9.20;;
68438;SDS011;55421;51.600;5.718;2023-12-04T12:19:27;21.90;;;9.30;;
68438;SDS011;55421;51.600;5.718;2023-12-04T12:21:53;15.90;;;9.10;;
68438;SDS011;55421;51.600;5.718;2023-12-04T12:24:20;15.90;;;8.20;;
68438;SDS011;55421;51.600;5.718;2023-12-04T12:26:47;18.10;;;10.00;;
68438;SDS011;55421;51.600;5.718;2023-12-04T12:29:13;16.10;;;9.00;;
68438;SDS011;55421;51.600;5.718;2023-12-04T12:31:42;17.00;;;9.10;;
68438;SDS011;55421;51.600;5.718;2023-12-04T12:34:09;11.70;;;7.10;;
68438;SDS011;55421;51.600;5.718;2023-12-04T12:36:35;16.20;;;9.00;;
68438;SDS011;55421;51.600;5.718;2023-12-04T12:39:02;18.30;;;9.10;;
68438;SDS011;55421;51.600;5.718;2023-12-04T12:41:30;16.40;;;8.20;;
68438;SDS011;55421;51.600;5.718;2023-12-04T12:43:57;17.00;;;9.10;;
68438;SDS011;55421;51.600;5.718;2023-12-04T12:46:24;14.80;;;8.80;;
68438;SDS011;55421;51.600;5.718;2023-12-04T12:48:51;15.00;;;8.90;;
68438;SDS011;55421;51.600;5.718;2023-12-04T12:51:17;17.00;;;8.60;;
68438;SDS011;55421;51.600;5.718;2023-12-04T12:53:44;14.20;;;8.60;;
68438;SDS011;55421;51.600;5.718;2023-12-04T12:56:11;15.00;;;8.70;;
68438;SDS011;55421;51.600;5.718;2023-12-04T12:58:37;13.80;;;8.00;;
68438;SDS011;55421;51.600;5.718;2023-12-04T13:01:04;15.20;;;9.10;;
68438;SDS011;55421;51.600;5.718;2023-12-04T13:03:30;12.90;;;7.50;;
68438;SDS011;55421;51.600;5.718;2023-12-04T13:06:00;10.70;;;7.10;;
68438;SDS011;55421;51.600;5.718;2023-12-04T13:08:26;12.40;;;7.50;;
68438;SDS011;55421;51.600;5.718;2023-12-04T13:10:53;17.30;;;9.10;;
68438;SDS011;55421;51.600;5.718;2023-12-04T13:13:19;14.80;;;8.40;;
68438;SDS011;55421;51.600;5.718;2023-12-04T13:15:47;14.80;;;7.80;;
68438;SDS011;55421;51.600;5.718;2023-12-04T13:18:14;14.50;;;7.70;;
68438;SDS011;55421;51.600;5.718;2023-12-04T13:20:40;13.10;;;7.30;;
68438;SDS011;55421;51.600;5.718;2023-12-04T13:23:07;14.80;;;7.10;;
68438;SDS011;55421;51.600;5.718;2023-12-04T13:25:33;16.30;;;9.00;;
68438;SDS011;55421;51.600;5.718;2023-12-04T13:28:00;15.40;;;8.10;;
68438;SDS011;55421;51.600;5.718;2023-12-04T13:30:26;13.10;;;7.60;;
68438;SDS011;55421;51.600;5.718;2023-12-04T13:32:53;15.60;;;8.20;;
68438;SDS011;55421;51.600;5.718;2023-12-04T13:35:19;18.00;;;8.60;;
68438;SDS011;55421;51.600;5.718;2023-12-04T13:37:45;16.00;;;7.70;;
68438;SDS011;55421;51.600;5.718;2023-12-04T13:40:12;13.70;;;7.20;;
68438;SDS011;55421;51.600;5.718;2023-12-04T13:42:42;13.60;;;6.80;;
68438;SDS011;55421;51.600;5.718;2023-12-04T13:45:27;15.40;;;8.10;;
68438;SDS011;55421;51.600;5.718;2023-12-04T13:47:53;14.20;;;7.70;;
68438;SDS011;55421;51.600;5.718;2023-12-04T13:50:20;13.90;;;8.20;;
68438;SDS011;55421;51.600;5.718;2023-12-04T13:52:47;15.80;;;8.90;;
68438;SDS011;55421;51.600;5.718;2023-12-04T13:55:21;17.20;;;8.40;;
68438;SDS011;55421;51.600;5.718;2023-12-04T13:58:08;14.70;;;8.70;;
68438;SDS011;55421;51.600;5.718;2023-12-04T14:00:36;14.30;;;8.00;;
68438;SDS011;55421;51.600;5.718;2023-12-04T14:03:03;15.40;;;8.30;;
68438;SDS011;55421;51.600;5.718;2023-12-04T14:05:31;16.00;;;9.60;;
68438;SDS011;55421;51.600;5.718;2023-12-04T14:07:58;16.00;;;9.80;;
68438;SDS011;55421;51.600;5.718;2023-12-04T14:10:25;13.00;;;6.90;;
68438;SDS011;55421;51.600;5.718;2023-12-04T14:12:56;14.90;;;8.60;;
68438;SDS011;55421;51.600;5.718;2023-12-04T14:15:22;19.50;;;9.70;;
68438;SDS011;55421;51.600;5.718;2023-12-04T14:17:48;17.70;;;9.90;;
68438;SDS011;55421;51.600;5.718;2023-12-04T14:20:15;15.50;;;9.20;;
68438;SDS011;55421;51.600;5.718;2023-12-04T14:22:45;17.20;;;9.90;;
68438;SDS011;55421;51.600;5.718;2023-12-04T14:25:12;21.30;;;11.30;;
68438;SDS011;55421;51.600;5.718;2023-12-04T14:27:39;16.70;;;10.10;;
68438;SDS011;55421;51.600;5.718;2023-12-04T14:30:07;18.10;;;10.40;;
68438;SDS011;55421;51.600;5.718;2023-12-04T14:32:35;17.00;;;9.30;;
68438;SDS011;55421;51.600;5.718;2023-12-04T14:35:05;18.60;;;10.80;;